Time;durP1;ratioP1;P1;durP2;ratioP2;P2;SDS_P1;SDS_P2;PMS_P1;PMS_P2;Temp;Humidity;BMP_temperature;BMP_pressure;BME280_temperature;BME280_humidity;BME280_pressure;Samples;Min_cycle;Max_cycle;Signal;HPM_P1;HPM_P2
2023/11/21 00:00:53;;;;;;;9.23;7.57;;;11.00;99.90;;;;;;5073947;28;20173;-71
2023/11/21 00:03:19;;;;;;;9.20;8.07;;;11.00;99.90;;;;;;5073825;28;20411;-72
2023/11/21 00:05:44;;;;;;;9.43;7.17;;;11.00;99.90;;;;;;5055788;28;20264;-72
2023/11/21 00:08:10;;;;;;;8.60;6.30;;;11.00;99.90;;;;;;5055943;28;20219;-72
2023/11/21 00:10:38;;;;;;;15.63;7.73;;;10.90;99.90;;;;;;5073532;28;20202;-73
2023/11/21 00:13:04;;;;;;;12.10;7.17;;;11.00;99.90;;;;;;5073552;28;20158;-72
2023/11/21 00:15:29;;;;;;;10.30;7.33;;;11.00;99.90;;;;;;5073703;28;20479;-71
2023/11/21 00:17:55;;;;;;;21.67;8.00;;;10.90;99.90;;;;;;5073410;28;20200;-72
2023/11/21 00:20:20;;;;;;;9.10;6.00;;;10.90;99.90;;;;;;5073259;28;20240;-72
2023/11/21 00:22:46;;;;;;;8.50;6.70;;;10.90;99.90;;;;;;5073083;28;20174;-71
2023/11/21 00:25:14;;;;;;;8.30;6.33;;;10.90;99.90;;;;;;5073095;28;20541;-72
2023/11/21 00:27:39;;;;;;;8.70;6.53;;;10.90;99.90;;;;;;5073545;28;20215;-72
2023/11/21 00:30:06;;;;;;;8.90;6.87;;;10.90;99.90;;;;;;5072723;28;20452;-72
2023/11/21 00:32:32;;;;;;;13.43;7.60;;;10.90;99.90;;;;;;5073326;28;20159;-72
2023/11/21 00:34:59;;;;;;;12.47;8.23;;;10.90;99.90;;;;;;5055158;28;20408;-71
2023/11/21 00:37:24;;;;;;;9.80;7.57;;;10.90;99.90;;;;;;5073420;28;20162;-72
2023/11/21 00:39:50;;;;;;;10.13;9.03;;;10.90;99.90;;;;;;5073101;28;20427;-71
2023/11/21 00:42:15;;;;;;;11.00;9.60;;;10.90;99.90;;;;;;5072751;28;20553;-72
2023/11/21 00:44:41;;;;;;;12.00;7.83;;;10.90;99.90;;;;;;5054714;28;20541;-72
2023/11/21 00:47:07;;;;;;;15.33;9.43;;;10.80;99.90;;;;;;5053877;28;20166;-72
2023/11/21 00:49:33;;;;;;;9.97;7.80;;;10.80;99.90;;;;;;5072890;28;20478;-71
2023/11/21 00:51:59;;;;;;;15.17;8.70;;;10.80;99.90;;;;;;5054646;28;20456;-72
2023/11/21 00:54:24;;;;;;;10.27;8.90;;;10.80;99.90;;;;;;5072968;28;20951;-71
2023/11/21 00:56:50;;;;;;;9.03;7.20;;;10.80;99.90;;;;;;5072701;28;20537;-72
2023/11/21 00:59:15;;;;;;;11.43;8.80;;;10.80;99.90;;;;;;5054989;28;20201;-72
2023/11/21 01:01:41;;;;;;;10.20;8.57;;;10.70;99.90;;;;;;5054778;28;20264;-72
2023/11/21 01:04:06;;;;;;;10.23;7.43;;;10.70;99.90;;;;;;5054735;28;20174;-71
2023/11/21 01:06:32;;;;;;;9.33;8.03;;;10.70;99.90;;;;;;5054606;28;20174;-72
2023/11/21 01:08:58;;;;;;;11.33;8.10;;;10.60;99.90;;;;;;5072756;28;20748;-72
2023/11/21 01:11:24;;;;;;;10.20;7.80;;;10.60;99.90;;;;;;5072582;28;20447;-72
2023/11/21 01:13:49;;;;;;;11.53;8.33;;;10.50;99.90;;;;;;5054730;28;20177;-72
2023/11/21 01:16:15;;;;;;;8.47;6.97;;;10.50;99.90;;;;;;5054240;28;20253;-72
2023/11/21 01:18:40;;;;;;;9.67;8.10;;;10.40;99.90;;;;;;5054503;28;20170;-72
2023/11/21 01:21:07;;;;;;;11.87;8.50;;;10.40;99.90;;;;;;5072127;28;20161;-72
2023/11/21 01:23:32;;;;;;;11.83;8.30;;;10.40;99.90;;;;;;5072729;28;20644;-71
2023/11/21 01:25:58;;;;;;;12.03;8.43;;;10.40;99.90;;;;;;5072178;28;20409;-72
2023/11/21 01:28:24;;;;;;;18.37;9.07;;;10.40;99.90;;;;;;5054306;28;20174;-72
2023/11/21 01:30:49;;;;;;;12.40;9.20;;;10.40;99.90;;;;;;5054420;28;20198;-72
2023/11/21 01:33:15;;;;;;;10.03;8.60;;;10.40;99.90;;;;;;5072292;28;20673;-71
2023/11/21 01:35:41;;;;;;;16.00;9.53;;;10.40;99.90;;;;;;5072051;28;20158;-72
2023/11/21 01:38:08;;;;;;;10.30;8.53;;;10.40;99.90;;;;;;5072164;28;20664;-71
2023/11/21 01:40:34;;;;;;;10.20;7.80;;;10.30;99.90;;;;;;5054089;28;20460;-71
2023/11/21 01:43:00;;;;;;;14.23;8.17;;;10.30;99.90;;;;;;5072270;28;20459;-72
2023/11/21 01:45:25;;;;;;;10.90;7.40;;;10.20;99.90;;;;;;5071794;28;20922;-71
2023/11/21 01:47:51;;;;;;;8.57;7.63;;;10.10;99.90;;;;;;5054069;28;20186;-72
2023/11/21 01:50:17;;;;;;;13.57;8.00;;;10.10;99.90;;;;;;5053832;28;20206;-72
2023/11/21 01:52:47;;;;;;;8.33;7.50;;;10.00;99.90;;;;;;5071993;28;20894;-71
2023/11/21 01:55:18;;;;;;;11.40;8.37;;;10.00;99.90;;;;;;5071899;28;20401;-72
2023/11/21 01:57:43;;;;;;;12.57;8.10;;;9.90;99.90;;;;;;5054370;28;20504;-71
2023/11/21 02:00:16;;;;;;;11.57;7.70;;;9.80;99.90;;;;;;5075521;28;20527;-72
2023/11/21 02:02:48;;;;;;;8.17;6.57;;;9.80;99.90;;;;;;5057763;28;20842;-71
2023/11/21 02:05:18;;;;;;;10.63;7.00;;;9.70;99.90;;;;;;5057412;28;20416;-72
2023/11/21 02:07:44;;;;;;;9.43;7.10;;;9.70;99.90;;;;;;5075545;28;20404;-71
2023/11/21 02:10:14;;;;;;;8.67;6.67;;;9.70;99.90;;;;;;5075496;28;20475;-71
2023/11/21 02:12:42;;;;;;;13.00;7.37;;;9.70;99.90;;;;;;5075564;28;20756;-72
2023/11/21 02:15:14;;;;;;;13.37;7.47;;;9.60;99.90;;;;;;5075329;28;20407;-72
2023/11/21 02:17:43;;;;;;;12.27;8.27;;;9.70;99.90;;;;;;5075536;28;20408;-72
2023/11/21 02:20:15;;;;;;;11.73;8.90;;;9.70;99.90;;;;;;5075513;28;20466;-72
2023/11/21 02:22:42;;;;;;;14.57;7.87;;;9.70;99.90;;;;;;5075442;28;20503;-71
2023/11/21 02:25:08;;;;;;;14.17;9.30;;;9.70;99.90;;;;;;5075230;28;20411;-72
2023/11/21 02:27:33;;;;;;;9.93;8.80;;;9.70;99.90;;;;;;5075607;28;20420;-72
2023/11/21 02:30:00;;;;;;;15.40;9.30;;;9.70;99.90;;;;;;5057159;28;20490;-72
2023/11/21 02:32:26;;;;;;;13.87;8.40;;;9.70;99.90;;;;;;5075360;28;20162;-72
2023/11/21 02:34:52;;;;;;;9.40;8.10;;;9.70;99.90;;;;;;5075130;28;20405;-71
2023/11/21 02:37:17;;;;;;;11.77;8.00;;;9.80;99.90;;;;;;5075291;28;20166;-72
2023/11/21 02:39:43;;;;;;;10.50;7.90;;;9.80;99.90;;;;;;5075135;28;20253;-72
2023/11/21 02:42:08;;;;;;;13.80;7.40;;;9.80;99.90;;;;;;5075009;28;20621;-71
2023/11/21 02:44:34;;;;;;;13.60;7.70;;;9.80;99.90;;;;;;5057240;28;20683;-72
2023/11/21 02:47:00;;;;;;;17.33;8.40;;;9.90;99.90;;;;;;5075089;28;20167;-72
2023/11/21 02:49:28;;;;;;;10.20;8.33;;;9.90;99.90;;;;;;5075034;28;20497;-72
2023/11/21 02:51:54;;;;;;;12.27;7.37;;;9.90;99.90;;;;;;5074744;28;20204;-72
2023/11/21 02:54:21;;;;;;;11.90;7.77;;;9.90;99.90;;;;;;5057081;28;20404;-72
2023/11/21 02:56:47;;;;;;;10.20;6.73;;;9.90;99.90;;;;;;5074808;28;20416;-71
2023/11/21 02:59:13;;;;;;;14.03;7.53;;;9.90;99.90;;;;;;5074639;28;20924;-72
2023/11/21 03:01:38;;;;;;;8.33;6.37;;;10.00;99.90;;;;;;5074802;28;20963;-72
2023/11/21 03:04:04;;;;;;;14.60;7.20;;;10.00;99.90;;;;;;5074921;28;20178;-72
2023/11/21 03:06:30;;;;;;;7.90;6.73;;;10.00;99.90;;;;;;5056717;28;20540;-71
2023/11/21 03:08:55;;;;;;;10.80;7.10;;;10.00;99.90;;;;;;5056445;28;20289;-72
2023/11/21 03:11:21;;;;;;;9.63;7.03;;;10.00;99.90;;;;;;5073501;28;20245;-72
2023/11/21 03:13:46;;;;;;;8.03;6.07;;;10.00;99.90;;;;;;5056514;28;20627;-72
2023/11/21 03:16:12;;;;;;;8.47;5.40;;;10.00;99.90;;;;;;5056285;28;20578;-71
2023/11/21 03:18:38;;;;;;;10.50;6.40;;;10.00;99.90;;;;;;5074507;28;20534;-72
2023/11/21 03:21:10;;;;;;;11.90;5.90;;;10.00;99.90;;;;;;5074333;28;20415;-72
2023/11/21 03:23:36;;;;;;;9.60;6.00;;;10.00;99.90;;;;;;5074461;28;20412;-72
2023/11/21 03:26:02;;;;;;;6.40;4.87;;;10.00;99.90;;;;;;5055987;28;20414;-72
2023/11/21 03:28:28;;;;;;;8.70;5.87;;;10.00;99.90;;;;;;5074192;28;20585;-72
2023/11/21 03:30:54;;;;;;;11.63;6.47;;;10.00;99.90;;;;;;5056230;28;20452;-72
2023/11/21 03:33:20;;;;;;;11.50;7.07;;;10.10;99.90;;;;;;5074314;28;20201;-71
2023/11/21 03:35:46;;;;;;;9.47;6.33;;;10.10;99.90;;;;;;5074094;28;20166;-71
2023/11/21 03:38:12;;;;;;;15.10;6.57;;;10.10;99.90;;;;;;5074329;28;20774;-72
2023/11/21 03:40:39;;;;;;;8.10;6.53;;;10.10;99.90;;;;;;5074064;28;20428;-72
2023/11/21 03:43:06;;;;;;;12.83;6.30;;;10.10;99.90;;;;;;5056092;28;20417;-71
2023/11/21 03:45:31;;;;;;;7.70;6.43;;;10.10;99.90;;;;;;5056037;28;20427;-72
2023/11/21 03:47:57;;;;;;;7.83;5.27;;;10.10;99.90;;;;;;5074036;28;20408;-72
2023/11/21 03:50:22;;;;;;;12.30;6.60;;;10.10;99.90;;;;;;5055740;28;20209;-72
2023/11/21 03:52:48;;;;;;;8.30;5.87;;;10.10;99.90;;;;;;5073791;28;20189;-71
2023/11/21 03:55:14;;;;;;;12.03;6.30;;;10.10;99.90;;;;;;5073622;28;20193;-72
2023/11/21 03:57:40;;;;;;;9.10;6.10;;;10.10;99.90;;;;;;5055928;28;20220;-72
2023/11/21 04:00:08;;;;;;;12.87;7.33;;;10.10;99.90;;;;;;5073783;28;20421;-71
2023/11/21 04:02:34;;;;;;;7.43;5.30;;;10.10;99.90;;;;;;5055719;28;20170;-72
2023/11/21 04:04:59;;;;;;;7.40;6.30;;;10.10;99.90;;;;;;5073593;28;20409;-72
2023/11/21 04:07:25;;;;;;;10.67;6.27;;;10.10;99.90;;;;;;5073638;28;20581;-72
2023/11/21 04:09:50;;;;;;;10.80;7.23;;;10.10;99.90;;;;;;5073512;28;20190;-71
2023/11/21 04:12:16;;;;;;;11.07;7.30;;;10.10;99.90;;;;;;5073541;28;20170;-72
2023/11/21 04:14:41;;;;;;;8.63;5.43;;;10.10;99.90;;;;;;5055497;28;20170;-71
2023/11/21 04:17:07;;;;;;;10.13;5.77;;;10.10;99.90;;;;;;5073423;28;20166;-72
2023/11/21 04:19:32;;;;;;;7.67;5.80;;;10.10;99.90;;;;;;5073311;28;20192;-72
2023/11/21 04:21:58;;;;;;;7.40;5.70;;;10.10;99.90;;;;;;5073208;28;20185;-71
2023/11/21 04:24:23;;;;;;;9.43;6.47;;;10.10;99.90;;;;;;5073355;28;20178;-72
2023/11/21 04:26:49;;;;;;;10.43;7.17;;;10.10;99.90;;;;;;5073021;28;20668;-71
2023/11/21 04:29:14;;;;;;;9.27;7.07;;;10.10;99.90;;;;;;5073354;28;20197;-72
2023/11/21 04:31:41;;;;;;;13.97;7.13;;;10.10;99.90;;;;;;5054866;28;20229;-71
2023/11/21 04:34:06;;;;;;;11.93;6.53;;;10.00;99.90;;;;;;5055276;28;20173;-72
2023/11/21 04:36:32;;;;;;;11.67;7.10;;;10.00;99.90;;;;;;5072597;28;20919;-71
2023/11/21 04:38:58;;;;;;;9.03;6.63;;;10.00;99.90;;;;;;5072971;28;20292;-72
2023/11/21 04:41:23;;;;;;;10.80;6.53;;;10.00;99.90;;;;;;5055054;28;20177;-72
2023/11/21 04:43:49;;;;;;;12.43;7.97;;;10.00;99.90;;;;;;5073006;28;20581;-72
2023/11/21 04:46:14;;;;;;;10.43;7.73;;;10.00;99.90;;;;;;5072711;28;20249;-72
2023/11/21 04:48:40;;;;;;;13.70;7.80;;;10.00;99.90;;;;;;5055019;28;20170;-72
2023/11/21 04:51:06;;;;;;;8.40;6.10;;;9.90;99.90;;;;;;5054617;28;20250;-72
2023/11/21 04:53:32;;;;;;;10.30;7.10;;;9.90;99.90;;;;;;5054534;28;20182;-72
2023/11/21 04:55:57;;;;;;;11.40;7.33;;;9.90;99.90;;;;;;5072517;28;20405;-72
2023/11/21 04:58:23;;;;;;;7.93;6.37;;;9.90;99.90;;;;;;5054758;28;20166;-72
2023/11/21 05:00:49;;;;;;;14.67;8.03;;;9.90;99.90;;;;;;5072560;28;20221;-71
2023/11/21 05:03:15;;;;;;;12.73;7.97;;;9.80;99.90;;;;;;5072796;28;20170;-71
2023/11/21 05:05:40;;;;;;;9.90;6.40;;;9.80;99.90;;;;;;5072497;28;20891;-72
2023/11/21 05:08:06;;;;;;;8.93;5.83;;;9.70;99.90;;;;;;5054763;28;20174;-72
2023/11/21 05:10:31;;;;;;;12.70;7.80;;;9.70;99.90;;;;;;5054680;28;20226;-72
2023/11/21 05:12:58;;;;;;;10.70;7.33;;;9.70;99.90;;;;;;5072616;28;20625;-71
2023/11/21 05:15:24;;;;;;;10.77;6.70;;;9.70;99.90;;;;;;5054515;28;20166;-72
2023/11/21 05:17:51;;;;;;;12.17;7.30;;;9.70;99.90;;;;;;5072442;28;20431;-72
2023/11/21 05:20:20;;;;;;;10.00;6.93;;;9.70;99.90;;;;;;5072144;28;20842;-72
2023/11/21 05:22:47;;;;;;;13.53;7.60;;;9.70;99.90;;;;;;5072549;28;20405;-72
2023/11/21 05:25:12;;;;;;;11.53;6.90;;;9.70;99.90;;;;;;5072438;28;20404;-72
2023/11/21 05:27:38;;;;;;;11.07;7.53;;;9.70;99.90;;;;;;5072881;28;20401;-71
2023/11/21 05:30:05;;;;;;;14.70;7.70;;;9.70;99.90;;;;;;5072508;28;20189;-72
2023/11/21 05:32:31;;;;;;;12.00;7.70;;;9.80;99.90;;;;;;5054510;28;20252;-72
2023/11/21 05:34:57;;;;;;;10.13;7.17;;;9.70;99.90;;;;;;5076445;28;20400;-72
2023/11/21 05:37:23;;;;;;;13.73;8.53;;;9.70;99.90;;;;;;5076485;28;20958;-71
2023/11/21 05:39:49;;;;;;;15.57;9.90;;;9.70;99.90;;;;;;5058256;28;20194;-71
2023/11/21 05:42:14;;;;;;;11.43;8.20;;;9.70;99.90;;;;;;5059536;28;20412;-72
2023/11/21 05:44:43;;;;;;;14.17;8.10;;;9.70;99.90;;;;;;5077765;28;20412;-72
2023/11/21 05:47:09;;;;;;;13.27;8.93;;;9.70;99.90;;;;;;5077403;28;20165;-72
2023/11/21 05:49:35;;;;;;;13.50;8.33;;;9.70;99.90;;;;;;5076886;28;20424;-72
2023/11/21 05:52:00;;;;;;;15.80;9.97;;;9.60;99.90;;;;;;5077030;28;20498;-72
2023/11/21 05:54:26;;;;;;;21.90;10.80;;;9.60;99.90;;;;;;5058832;28;20178;-72
2023/11/21 05:56:51;;;;;;;15.23;9.33;;;9.60;99.90;;;;;;5076220;28;20546;-71
2023/11/21 05:59:17;;;;;;;19.13;10.33;;;9.50;99.90;;;;;;5058585;28;20225;-72
2023/11/21 06:01:43;;;;;;;16.93;10.70;;;9.50;99.90;;;;;;5058381;28;20178;-72
2023/11/21 06:04:09;;;;;;;16.50;10.67;;;9.50;99.90;;;;;;5076387;28;20696;-72
2023/11/21 06:06:35;;;;;;;13.63;9.50;;;9.50;99.90;;;;;;5076257;28;20525;-74
2023/11/21 06:09:01;;;;;;;20.50;10.07;;;9.50;99.90;;;;;;5076161;28;20497;-72
2023/11/21 06:11:26;;;;;;;18.30;10.67;;;9.50;99.90;;;;;;5058072;28;20523;-72
2023/11/21 06:13:53;;;;;;;18.27;11.07;;;9.50;99.90;;;;;;5076011;28;20171;-72
2023/11/21 06:16:19;;;;;;;20.90;11.40;;;9.50;99.90;;;;;;5076124;28;20154;-72
2023/11/21 06:18:46;;;;;;;18.00;10.33;;;9.50;99.90;;;;;;5075667;28;20408;-72
2023/11/21 06:21:11;;;;;;;17.60;11.60;;;9.50;99.90;;;;;;5076142;28;20404;-72
2023/11/21 06:23:37;;;;;;;19.17;10.70;;;9.60;99.90;;;;;;5075915;28;20492;-72
2023/11/21 06:26:04;;;;;;;15.57;10.70;;;9.60;99.90;;;;;;5075829;28;20806;-72
2023/11/21 06:28:30;;;;;;;14.23;10.73;;;9.60;99.90;;;;;;5057737;28;20180;-72
2023/11/21 06:30:57;;;;;;;16.47;11.40;;;9.60;99.90;;;;;;5075829;28;20942;-72
2023/11/21 06:33:22;;;;;;;19.83;12.77;;;9.70;99.90;;;;;;5075695;28;20245;-72
2023/11/21 06:35:48;;;;;;;22.43;11.70;;;9.70;99.90;;;;;;5075760;28;20971;-72
2023/11/21 06:38:13;;;;;;;16.73;10.47;;;9.70;99.90;;;;;;5057672;28;20166;-72
2023/11/21 06:40:39;;;;;;;14.93;10.50;;;9.70;99.90;;;;;;5057711;28;20255;-72
2023/11/21 06:43:06;;;;;;;17.57;11.30;;;9.70;99.90;;;;;;5057514;28;20200;-72
2023/11/21 06:45:33;;;;;;;24.17;12.80;;;9.70;99.90;;;;;;5055896;28;20166;-72
2023/11/21 06:47:59;;;;;;;20.43;12.50;;;9.80;99.90;;;;;;5057212;28;20849;-72
2023/11/21 06:50:25;;;;;;;18.60;12.10;;;9.80;99.90;;;;;;5075053;28;20486;-72
2023/11/21 06:52:50;;;;;;;21.00;11.90;;;9.80;99.90;;;;;;5057391;28;20255;-72
2023/11/21 06:55:16;;;;;;;29.17;13.67;;;9.90;99.90;;;;;;5075118;28;20193;-72
2023/11/21 06:57:41;;;;;;;21.97;13.53;;;9.90;99.90;;;;;;5075640;28;20249;-71
2023/11/21 07:00:11;;;;;;;21.00;11.83;;;9.90;99.90;;;;;;5075418;28;20186;-72
2023/11/21 07:02:36;;;;;;;19.17;12.67;;;10.00;99.90;;;;;;5057379;28;20170;-72
2023/11/21 07:05:02;;;;;;;21.27;11.00;;;10.00;99.90;;;;;;5057259;28;21163;-72
2023/11/21 07:07:28;;;;;;;22.03;13.33;;;10.00;99.90;;;;;;5057561;28;20162;-72
2023/11/21 07:09:53;;;;;;;21.87;12.07;;;10.10;99.90;;;;;;5057219;28;20219;-72
2023/11/21 07:12:19;;;;;;;26.20;12.37;;;10.10;99.90;;;;;;5057295;28;20247;-72
2023/11/21 07:14:45;;;;;;;24.77;14.00;;;10.10;99.90;;;;;;5056894;28;20174;-72
2023/11/21 07:17:14;;;;;;;18.30;11.47;;;10.10;99.90;;;;;;5074864;28;20224;-72
2023/11/21 07:19:41;;;;;;;23.60;13.70;;;10.20;99.90;;;;;;5074755;28;20189;-72
2023/11/21 07:22:08;;;;;;;23.40;12.47;;;10.20;99.90;;;;;;5074552;28;20439;-72
2023/11/21 07:24:34;;;;;;;18.03;11.67;;;10.30;99.90;;;;;;5056811;28;20413;-72
2023/11/21 07:27:00;;;;;;;21.67;12.77;;;10.30;99.90;;;;;;5056485;28;20415;-72
2023/11/21 07:29:26;;;;;;;29.00;14.60;;;10.30;99.90;;;;;;5074489;28;20503;-72
2023/11/21 07:31:52;;;;;;;24.60;12.47;;;10.30;99.90;;;;;;5074943;28;20539;-72
2023/11/21 07:34:19;;;;;;;22.87;12.70;;;10.30;99.90;;;;;;5056671;28;20166;-72
2023/11/21 07:36:45;;;;;;;30.33;14.80;;;10.40;99.90;;;;;;5074447;28;20495;-73
2023/11/21 07:39:10;;;;;;;20.23;12.83;;;10.40;99.90;;;;;;5074628;28;20417;-72
2023/11/21 07:41:37;;;;;;;16.80;12.23;;;10.50;99.90;;;;;;5056538;28;20170;-72
2023/11/21 07:44:03;;;;;;;25.93;12.60;;;10.50;99.90;;;;;;5056196;28;20205;-72
2023/11/21 07:46:29;;;;;;;22.03;13.50;;;10.60;99.90;;;;;;5074109;28;20405;-72
2023/11/21 07:48:55;;;;;;;21.47;13.00;;;10.70;99.90;;;;;;5056524;28;20600;-72
2023/11/21 07:51:20;;;;;;;21.37;12.20;;;10.70;99.90;;;;;;5074155;28;20201;-72
2023/11/21 07:53:46;;;;;;;23.60;13.80;;;10.80;99.90;;;;;;5073644;28;20863;-70
2023/11/21 07:56:12;;;;;;;20.00;13.00;;;10.90;99.90;;;;;;5072541;28;20163;-70
2023/11/21 07:58:38;;;;;;;18.50;11.90;;;10.90;99.90;;;;;;5072620;28;20182;-69
2023/11/21 08:01:04;;;;;;;25.83;11.93;;;11.00;99.90;;;;;;5072981;28;20435;-70
2023/11/21 08:03:31;;;;;;;21.20;14.17;;;11.10;99.90;;;;;;5072932;28;20967;-70
2023/11/21 08:05:57;;;;;;;18.47;12.23;;;11.20;99.90;;;;;;5063689;28;20961;-70
2023/11/21 08:08:23;;;;;;;16.33;10.33;;;11.40;99.90;;;;;;5073251;28;20479;-70
2023/11/21 08:10:55;;;;;;;17.00;10.60;;;11.50;99.90;;;;;;5072600;28;20970;-70
2023/11/21 08:13:22;;;;;;;20.80;10.50;;;11.60;99.90;;;;;;5072829;28;20393;-70
2023/11/21 08:15:48;;;;;;;23.40;12.57;;;11.70;99.90;;;;;;5072548;28;20408;-70
2023/11/21 08:18:14;;;;;;;24.87;11.40;;;11.80;99.90;;;;;;5072722;28;20907;-70
2023/11/21 08:20:40;;;;;;;23.60;11.87;;;11.80;99.90;;;;;;5072567;28;20669;-70
2023/11/21 08:23:06;;;;;;;20.10;11.37;;;11.80;99.90;;;;;;5054605;28;20415;-70
2023/11/21 08:25:33;;;;;;;22.40;12.40;;;11.80;99.90;;;;;;5072386;28;20624;-70
2023/11/21 08:27:59;;;;;;;20.40;11.37;;;11.80;99.90;;;;;;5072467;28;20174;-71
2023/11/21 08:30:25;;;;;;;20.43;12.33;;;11.70;99.90;;;;;;5072258;28;20797;-70
2023/11/21 08:32:52;;;;;;;26.03;13.40;;;11.70;99.90;;;;;;5072440;28;20401;-70
2023/11/21 08:35:17;;;;;;;20.30;11.73;;;11.60;99.90;;;;;;5054417;28;20162;-70
2023/11/21 08:37:43;;;;;;;20.27;11.03;;;11.60;99.90;;;;;;5072353;28;20399;-70
2023/11/21 08:40:09;;;;;;;26.87;12.03;;;11.50;99.90;;;;;;5072182;28;20190;-70
2023/11/21 08:42:35;;;;;;;24.87;11.60;;;11.50;99.90;;;;;;5071958;28;20166;-70
2023/11/21 08:45:01;;;;;;;21.83;13.30;;;11.40;99.90;;;;;;5071977;28;20416;-70
2023/11/21 08:47:26;;;;;;;28.30;12.50;;;11.40;99.90;;;;;;5072225;28;20396;-70
2023/11/21 08:49:53;;;;;;;16.50;9.63;;;11.40;99.90;;;;;;5072109;28;20416;-70
2023/11/21 08:52:20;;;;;;;21.93;9.57;;;11.40;99.90;;;;;;5072070;28;20699;-70
2023/11/21 08:54:46;;;;;;;18.83;10.30;;;11.50;99.90;;;;;;5071974;28;20799;-70
2023/11/21 08:57:11;;;;;;;25.37;12.47;;;11.60;99.90;;;;;;5072093;28;20495;-71
2023/11/21 08:59:37;;;;;;;22.30;11.30;;;11.60;99.90;;;;;;5072541;28;20190;-70
2023/11/21 09:02:02;;;;;;;23.03;10.60;;;11.80;99.90;;;;;;5073247;28;20201;-70
2023/11/21 09:04:28;;;;;;;29.47;12.23;;;11.90;99.90;;;;;;5091146;28;20858;-70
2023/11/21 09:06:53;;;;;;;30.17;12.13;;;12.10;99.90;;;;;;5090428;28;20161;-70
2023/11/21 09:09:19;;;;;;;22.77;10.23;;;12.40;99.90;;;;;;5072674;28;20536;-70
2023/11/21 09:11:46;;;;;;;29.40;13.07;;;12.60;99.90;;;;;;5091097;28;20645;-68
2023/11/21 09:14:13;;;;;;;20.30;10.33;;;12.90;99.90;;;;;;5091349;28;20700;-69
2023/11/21 09:16:39;;;;;;;27.20;12.70;;;13.20;99.90;;;;;;5091194;28;20504;-68
2023/11/21 09:19:05;;;;;;;23.20;12.27;;;13.40;99.90;;;;;;5091892;28;20543;-69
2023/11/21 09:21:30;;;;;;;20.00;11.40;;;13.60;99.90;;;;;;5091926;28;20157;-71
2023/11/21 09:23:56;;;;;;;19.40;10.60;;;13.80;99.90;;;;;;5091912;28;20758;-70
2023/11/21 09:26:22;;;;;;;24.97;11.50;;;13.90;99.90;;;;;;5091784;28;20244;-70
2023/11/21 09:28:47;;;;;;;23.37;10.23;;;13.90;99.90;;;;;;5091870;28;20189;-70
2023/11/21 09:31:15;;;;;;;20.70;10.73;;;13.80;99.90;;;;;;5091946;28;20668;-70
2023/11/21 09:33:41;;;;;;;16.33;9.87;;;13.80;99.90;;;;;;5091909;28;20161;-70
2023/11/21 09:36:13;;;;;;;21.93;10.63;;;13.70;99.90;;;;;;5091674;28;20406;-70
2023/11/21 09:38:39;;;;;;;21.07;10.90;;;13.70;99.90;;;;;;5091767;28;20400;-70
2023/11/21 09:41:08;;;;;;;16.20;9.70;;;13.60;99.90;;;;;;5091846;28;20490;-70
2023/11/21 09:43:34;;;;;;;24.47;11.80;;;13.50;99.90;;;;;;5073654;28;20169;-71
2023/11/21 09:46:02;;;;;;;26.07;12.27;;;13.50;99.90;;;;;;5091604;28;20404;-70
2023/11/21 09:48:30;;;;;;;20.37;9.50;;;13.50;99.90;;;;;;5091748;28;20407;-71
2023/11/21 09:50:56;;;;;;;23.60;12.27;;;13.40;99.90;;;;;;5091606;28;20448;-71
2023/11/21 09:53:24;;;;;;;18.00;10.43;;;13.30;99.90;;;;;;5091565;28;20412;-70
2023/11/21 09:55:54;;;;;;;22.63;10.40;;;13.20;99.90;;;;;;5091497;28;20403;-70
2023/11/21 09:58:21;;;;;;;20.00;9.80;;;13.10;99.90;;;;;;5091613;28;20407;-70
2023/11/21 10:00:48;;;;;;;26.10;11.60;;;13.00;99.90;;;;;;5091572;28;20415;-71
2023/11/21 10:03:15;;;;;;;21.33;10.83;;;13.00;99.90;;;;;;5091617;28;20510;-70
2023/11/21 10:05:45;;;;;;;20.40;11.20;;;13.00;99.90;;;;;;5091512;28;20839;-71
2023/11/21 10:08:12;;;;;;;20.20;11.77;;;13.00;99.90;;;;;;5091573;28;20400;-71
2023/11/21 10:10:44;;;;;;;23.70;11.43;;;13.00;99.90;;;;;;5091378;28;20452;-70
2023/11/21 10:13:12;;;;;;;21.20;11.50;;;13.00;99.90;;;;;;5091540;28;20914;-70
2023/11/21 10:15:38;;;;;;;26.97;13.43;;;12.90;99.90;;;;;;5073218;28;20503;-70
2023/11/21 10:18:06;;;;;;;23.33;13.77;;;12.90;99.90;;;;;;5091485;28;20490;-70
2023/11/21 10:20:33;;;;;;;28.27;12.93;;;12.90;99.90;;;;;;5094586;28;20459;-71
2023/11/21 10:23:01;;;;;;;23.83;11.40;;;12.90;99.90;;;;;;5095189;28;20770;-71
2023/11/21 10:25:26;;;;;;;31.13;12.33;;;12.90;99.90;;;;;;5094964;28;20442;-70
2023/11/21 10:28:00;;;;;;;19.20;11.03;;;13.00;99.90;;;;;;5076916;28;20411;-70
2023/11/21 10:30:32;;;;;;;21.33;11.97;;;13.10;99.90;;;;;;5094669;28;20205;-70
2023/11/21 10:33:02;;;;;;;23.57;11.90;;;13.20;99.90;;;;;;5095031;28;20478;-71
2023/11/21 10:35:41;;;;;;;20.50;11.57;;;13.30;99.90;;;;;;5094806;28;20403;-70
2023/11/21 10:38:10;;;;;;;19.60;11.03;;;13.40;99.90;;;;;;5095000;28;20473;-70
2023/11/21 10:40:39;;;;;;;20.20;11.10;;;13.50;99.90;;;;;;5094458;28;20426;-71
2023/11/21 10:43:09;;;;;;;22.73;10.20;;;13.60;99.90;;;;;;5094722;28;20431;-71
2023/11/21 10:45:37;;;;;;;24.50;10.97;;;13.70;99.90;;;;;;5094549;28;20918;-71
2023/11/21 10:48:09;;;;;;;18.43;10.90;;;13.80;99.90;;;;;;5094808;28;21114;-70
2023/11/21 10:50:35;;;;;;;22.73;10.83;;;13.90;99.90;;;;;;5094525;28;20528;-71
2023/11/21 10:53:05;;;;;;;17.83;10.53;;;14.00;99.90;;;;;;5094547;28;20427;-70
2023/11/21 10:55:32;;;;;;;17.40;9.70;;;14.10;99.90;;;;;;5094431;28;20407;-71
2023/11/21 10:58:04;;;;;;;16.93;9.87;;;14.20;99.90;;;;;;5094524;28;20479;-70
2023/11/21 11:00:30;;;;;;;18.97;9.20;;;14.30;99.90;;;;;;5094339;28;20430;-71
2023/11/21 11:02:58;;;;;;;18.37;10.27;;;14.40;99.90;;;;;;5094474;28;20758;-70
2023/11/21 11:05:25;;;;;;;16.03;9.40;;;14.50;99.90;;;;;;5094190;28;20423;-70
2023/11/21 11:07:59;;;;;;;17.13;10.27;;;14.70;99.90;;;;;;5070400;28;20425;-71
2023/11/21 11:10:26;;;;;;;19.00;10.17;;;14.80;99.90;;;;;;5057243;28;20527;-71
2023/11/21 11:12:53;;;;;;;20.13;10.30;;;14.90;99.90;;;;;;5072667;28;20412;-71
2023/11/21 11:15:20;;;;;;;10.83;8.00;;;15.00;99.90;;;;;;5073541;28;20480;-70
2023/11/21 11:17:46;;;;;;;15.50;9.70;;;14.90;99.90;;;;;;5073816;28;20405;-71
2023/11/21 11:20:13;;;;;;;14.23;8.50;;;14.80;99.90;;;;;;5073740;28;20974;-71
2023/11/21 11:22:59;;;;;;;22.43;8.50;;;14.80;99.90;;;;;;5073797;28;20400;-70
2023/11/21 11:25:53;;;;;;;15.63;8.80;;;14.80;99.90;;;;;;5073549;28;20427;-70
2023/11/21 11:28:45;;;;;;;15.37;8.90;;;14.70;99.90;;;;;;5073766;28;20759;-70
2023/11/21 11:31:30;;;;;;;15.13;8.00;;;14.60;99.90;;;;;;5072601;28;20494;-72
2023/11/21 11:34:04;;;;;;;13.37;8.10;;;14.60;99.90;;;;;;5073824;28;20397;-72
2023/11/21 11:36:37;;;;;;;17.20;8.40;;;14.50;99.90;;;;;;5073444;28;20737;-72
2023/11/21 11:39:04;;;;;;;16.97;8.10;;;14.50;99.90;;;;;;5073474;28;20416;-71
2023/11/21 11:41:34;;;;;;;15.67;9.57;;;14.50;99.90;;;;;;5073215;28;20925;-70
2023/11/21 11:44:04;;;;;;;15.50;8.43;;;14.40;99.90;;;;;;5073383;28;20413;-70
2023/11/21 11:47:00;;;;;;;15.50;9.27;;;14.20;99.90;;;;;;5073409;28;20410;-70
2023/11/21 11:49:28;;;;;;;14.67;8.50;;;14.10;99.90;;;;;;5052588;28;20441;-71
2023/11/21 11:52:31;;;;;;;15.63;9.33;;;14.00;99.90;;;;;;5072848;28;20543;-70
2023/11/21 11:54:58;;;;;;;17.70;8.10;;;13.90;99.90;;;;;;5072938;28;20411;-71
2023/11/21 11:57:29;;;;;;;15.30;9.53;;;13.80;99.90;;;;;;5073119;28;20400;-71
2023/11/21 12:00:27;;;;;;;16.23;9.40;;;13.90;99.90;;;;;;5072983;28;20784;-70
2023/11/21 12:02:54;;;;;;;18.30;10.10;;;13.80;99.90;;;;;;5038551;28;20412;-70
2023/11/21 12:05:23;;;;;;;15.17;9.57;;;13.70;99.90;;;;;;5072749;28;20396;-70
2023/11/21 12:08:00;;;;;;;20.13;10.20;;;13.60;99.90;;;;;;5072882;28;20412;-71
2023/11/21 12:10:30;;;;;;;23.53;9.80;;;13.60;99.90;;;;;;5072560;28;20416;-71
2023/11/21 12:13:01;;;;;;;15.00;8.93;;;13.60;99.90;;;;;;5072783;28;20436;-72
2023/11/21 12:15:30;;;;;;;16.27;9.97;;;13.60;99.90;;;;;;5072585;28;20419;-72
2023/11/21 12:17:55;;;;;;;13.10;8.53;;;13.70;99.90;;;;;;5072787;28;20438;-71
2023/11/21 12:20:22;;;;;;;12.77;8.47;;;13.70;99.90;;;;;;5054625;28;20420;-71
2023/11/21 12:22:58;;;;;;;19.13;7.43;;;13.80;99.90;;;;;;5072609;28;20189;-72
2023/11/21 12:25:28;;;;;;;12.70;7.97;;;13.90;99.90;;;;;;5072263;28;20449;-72
2023/11/21 12:27:55;;;;;;;15.73;7.27;;;14.00;99.90;;;;;;5072705;28;21027;-71
2023/11/21 12:30:27;;;;;;;18.07;7.97;;;14.10;99.90;;;;;;5072346;28;20517;-71
2023/11/21 12:32:57;;;;;;;13.67;7.70;;;14.10;99.90;;;;;;5072479;28;20436;-71
2023/11/21 12:35:28;;;;;;;12.23;8.27;;;14.10;99.90;;;;;;5072209;28;20411;-71
2023/11/21 12:37:57;;;;;;;14.47;7.47;;;14.10;99.90;;;;;;5072385;28;20497;-71